ěÝzenÝ letovÚho provozu ╚eskÚ republiky
Letiste: LKPR Aktualizace: 14.06.2021 00:30:26  UTC
 METAR LKPR 14.06. 00:30 ...
METAR LKPR 140030Z 24008KT CAVOK 07/06 Q1025 NOSIG RMK REG QNH 1022=
 TAF LKPR 13.06. 23:00 ...
TAF LKPR 132300Z 1400/1506 33005KT CAVOK      BECMG 1413/1416 07004KT=